Time;durP1;ratioP1;P1;durP2;ratioP2;P2;SDS_P1;SDS_P2;PMS_P1;PMS_P2;Temp;Humidity;BMP_temperature;BMP_pressure;BME280_temperature;BME280_humidity;BME280_pressure;Samples;Min_cycle;Max_cycle;Signal;HPM_P1;HPM_P2
2022/03/24 00:01:25;;;;;;;33.78;14.25;;;;;;;;;;5010383;28;20032;-75
2022/03/24 00:03:51;;;;;;;28.23;14.13;;;;;;;;;;5012031;28;20029;-76
2022/03/24 00:06:16;;;;;;;32.83;14.43;;;;;;;;;;5010721;28;20096;-75
2022/03/24 00:08:41;;;;;;;26.42;14.05;;;;;;;;;;5011311;28;20025;-76
2022/03/24 00:11:06;;;;;;;31.37;13.77;;;;;;;;;;5012149;28;20045;-76
2022/03/24 00:13:32;;;;;;;28.42;12.95;;;;;;;;;;5011687;28;20294;-75
2022/03/24 00:15:58;;;;;;;24.05;13.55;;;;;;;;;;5011321;28;20034;-78
2022/03/24 00:18:23;;;;;;;32.13;13.93;;;;;;;;;;5011525;28;20569;-74
2022/03/24 00:20:48;;;;;;;30.65;14.73;;;;;;;;;;5011688;28;20356;-75
2022/03/24 00:23:14;;;;;;;33.17;14.82;;;;;;;;;;5011971;28;20013;-74
2022/03/24 00:25:39;;;;;;;29.20;14.95;;;;;;;;;;5010273;28;20025;-76
2022/03/24 00:28:06;;;;;;;30.60;14.15;;;;;;;;;;5010029;28;20014;-75
2022/03/24 00:30:31;;;;;;;32.60;14.57;;;;;;;;;;5011306;28;21868;-76
2022/03/24 00:32:56;;;;;;;34.60;14.38;;;;;;;;;;5011484;28;20496;-73
2022/03/24 00:35:23;;;;;;;36.33;15.40;;;;;;;;;;5010109;28;20113;-74
2022/03/24 00:37:48;;;;;;;34.88;15.60;;;;;;;;;;5011627;28;20022;-76
2022/03/24 00:40:16;;;;;;;35.90;15.57;;;;;;;;;;5010154;28;20025;-76
2022/03/24 00:42:42;;;;;;;26.58;14.73;;;;;;;;;;5011080;28;20080;-76
2022/03/24 00:45:11;;;;;;;30.83;15.07;;;;;;;;;;4991876;28;20479;-76
2022/03/24 00:47:37;;;;;;;29.05;14.65;;;;;;;;;;5006597;28;20034;-74
2022/03/24 00:50:02;;;;;;;31.88;14.18;;;;;;;;;;4992811;28;20060;-77
2022/03/24 00:52:28;;;;;;;29.85;13.38;;;;;;;;;;5008871;28;20038;-76
2022/03/24 00:54:53;;;;;;;26.35;13.30;;;;;;;;;;5006817;28;20026;-74
2022/03/24 00:57:19;;;;;;;33.17;13.65;;;;;;;;;;4991285;28;20045;-73
2022/03/24 00:59:45;;;;;;;29.55;13.27;;;;;;;;;;4991524;28;20018;-75
2022/03/24 01:02:10;;;;;;;26.90;13.65;;;;;;;;;;5006689;28;20438;-74
2022/03/24 01:04:36;;;;;;;29.25;13.48;;;;;;;;;;5006394;28;20064;-76
2022/03/24 01:07:03;;;;;;;30.85;13.70;;;;;;;;;;4991633;28;20396;-76
2022/03/24 01:09:28;;;;;;;34.67;14.07;;;;;;;;;;5006249;28;20018;-74
2022/03/24 01:11:53;;;;;;;28.10;14.10;;;;;;;;;;5006322;28;20042;-74
2022/03/24 01:14:19;;;;;;;30.55;13.82;;;;;;;;;;5006390;28;20049;-73
2022/03/24 01:16:44;;;;;;;30.77;14.32;;;;;;;;;;4991382;28;20030;-74
2022/03/24 01:19:09;;;;;;;37.25;14.73;;;;;;;;;;5008039;28;20556;-74
2022/03/24 01:21:36;;;;;;;30.58;15.80;;;;;;;;;;5010495;28;20018;-74
2022/03/24 01:24:01;;;;;;;28.65;14.63;;;;;;;;;;4995620;28;20022;-75
2022/03/24 01:26:27;;;;;;;25.75;14.88;;;;;;;;;;4995037;28;20404;-74
2022/03/24 01:28:53;;;;;;;29.25;15.20;;;;;;;;;;4995232;28;20028;-75
2022/03/24 01:31:20;;;;;;;38.55;15.07;;;;;;;;;;5010397;28;20034;-76
2022/03/24 01:33:47;;;;;;;32.22;15.05;;;;;;;;;;4995208;28;20065;-75
2022/03/24 01:36:13;;;;;;;34.42;14.63;;;;;;;;;;4995564;28;20498;-75
2022/03/24 01:38:38;;;;;;;28.27;15.30;;;;;;;;;;4995399;28;20023;-76
2022/03/24 01:41:04;;;;;;;30.95;15.65;;;;;;;;;;4995136;28;20033;-74
2022/03/24 01:43:29;;;;;;;33.08;15.63;;;;;;;;;;4995610;28;20030;-76
2022/03/24 01:45:55;;;;;;;37.08;16.25;;;;;;;;;;5014281;28;20026;-75
2022/03/24 01:48:21;;;;;;;28.95;15.00;;;;;;;;;;4995586;28;20022;-75
2022/03/24 01:50:46;;;;;;;36.50;15.40;;;;;;;;;;4995597;28;20034;-75
2022/03/24 01:53:12;;;;;;;29.25;15.52;;;;;;;;;;4995375;28;20015;-76
2022/03/24 01:55:39;;;;;;;30.92;14.48;;;;;;;;;;4996761;28;20525;-76
2022/03/24 01:58:04;;;;;;;33.03;15.35;;;;;;;;;;4997796;28;20028;-75
2022/03/24 02:00:31;;;;;;;32.92;15.77;;;;;;;;;;4997676;28;20022;-76
2022/03/24 02:02:58;;;;;;;33.28;14.85;;;;;;;;;;4996451;28;20494;-76
2022/03/24 02:05:24;;;;;;;35.72;15.85;;;;;;;;;;4995070;28;20037;-77
2022/03/24 02:07:50;;;;;;;30.20;15.15;;;;;;;;;;4996274;28;20472;-75
2022/03/24 02:10:16;;;;;;;29.95;14.20;;;;;;;;;;4999595;28;20086;-76
2022/03/24 02:12:41;;;;;;;27.65;13.32;;;;;;;;;;4997355;28;20084;-75
2022/03/24 02:15:07;;;;;;;33.97;15.20;;;;;;;;;;5009559;28;20463;-77
2022/03/24 02:17:32;;;;;;;32.75;14.95;;;;;;;;;;5009307;28;20026;-76
2022/03/24 02:19:58;;;;;;;29.75;15.05;;;;;;;;;;4994273;28;20042;-75
2022/03/24 02:22:24;;;;;;;30.58;15.88;;;;;;;;;;4994431;28;20117;-76
2022/03/24 02:24:50;;;;;;;36.10;15.13;;;;;;;;;;4994267;28;20023;-75
2022/03/24 02:27:15;;;;;;;30.15;14.70;;;;;;;;;;4994263;28;20030;-75
2022/03/24 02:29:40;;;;;;;30.67;14.57;;;;;;;;;;4994104;28;20022;-76
2022/03/24 02:32:11;;;;;;;34.83;14.77;;;;;;;;;;5008599;28;20068;-76
2022/03/24 02:34:37;;;;;;;26.55;13.18;;;;;;;;;;4994178;28;20483;-76
2022/03/24 02:37:05;;;;;;;26.58;14.52;;;;;;;;;;4994283;28;20066;-77
2022/03/24 02:39:30;;;;;;;26.83;14.40;;;;;;;;;;4994314;28;20029;-77
2022/03/24 02:41:56;;;;;;;25.85;13.77;;;;;;;;;;4997621;28;20023;-78
2022/03/24 02:44:22;;;;;;;39.10;16.35;;;;;;;;;;5008960;28;20037;-76
2022/03/24 02:46:49;;;;;;;28.52;14.18;;;;;;;;;;5009052;28;20023;-76
2022/03/24 02:49:18;;;;;;;34.83;14.50;;;;;;;;;;4993770;28;20031;-76
2022/03/24 02:51:43;;;;;;;36.83;14.85;;;;;;;;;;4993887;28;20034;-79
2022/03/24 02:54:09;;;;;;;30.92;14.05;;;;;;;;;;5009003;28;20084;-76
2022/03/24 02:56:35;;;;;;;30.73;14.30;;;;;;;;;;4993632;28;20080;-76
2022/03/24 02:59:00;;;;;;;32.72;14.07;;;;;;;;;;5008754;28;20025;-77
2022/03/24 03:01:25;;;;;;;29.95;13.63;;;;;;;;;;4993631;28;20018;-76
2022/03/24 03:03:52;;;;;;;30.20;14.40;;;;;;;;;;4993533;28;20089;-79
2022/03/24 03:06:18;;;;;;;27.05;14.07;;;;;;;;;;4993555;28;20030;-80
2022/03/24 03:08:43;;;;;;;29.08;13.90;;;;;;;;;;4993372;28;20372;-75
2022/03/24 03:11:08;;;;;;;24.83;13.18;;;;;;;;;;5008059;28;20045;-75
2022/03/24 03:13:34;;;;;;;27.33;14.40;;;;;;;;;;4993204;28;20080;-76
2022/03/24 03:15:59;;;;;;;27.73;15.10;;;;;;;;;;4993387;28;20038;-77
2022/03/24 03:18:25;;;;;;;35.38;14.27;;;;;;;;;;5005812;28;20018;-78
2022/03/24 03:20:50;;;;;;;25.23;14.10;;;;;;;;;;5012385;28;20018;-79
2022/03/24 03:23:16;;;;;;;35.65;15.50;;;;;;;;;;5012431;28;20390;-75
2022/03/24 03:25:41;;;;;;;31.30;14.68;;;;;;;;;;5012098;28;20475;-77
2022/03/24 03:28:07;;;;;;;34.83;15.73;;;;;;;;;;5006687;28;20364;-75
2022/03/24 03:30:32;;;;;;;27.33;13.80;;;;;;;;;;4998221;28;20077;-75
2022/03/24 03:32:57;;;;;;;33.95;14.52;;;;;;;;;;4991913;28;20464;-75
2022/03/24 03:35:22;;;;;;;30.00;14.13;;;;;;;;;;5013983;28;20029;-78
2022/03/24 03:37:48;;;;;;;30.80;14.50;;;;;;;;;;5012203;28;20459;-77
2022/03/24 03:40:13;;;;;;;39.05;14.65;;;;;;;;;;5012537;28;20398;-78
2022/03/24 03:42:38;;;;;;;27.00;13.35;;;;;;;;;;5011343;28;20021;-79
2022/03/24 03:45:04;;;;;;;28.38;13.65;;;;;;;;;;5011695;28;20084;-77
2022/03/24 03:47:29;;;;;;;28.55;13.70;;;;;;;;;;4992467;28;20015;-76
2022/03/24 03:49:55;;;;;;;29.60;13.38;;;;;;;;;;4992228;28;20022;-76
2022/03/24 03:52:20;;;;;;;25.90;12.50;;;;;;;;;;4992506;28;20027;-78
2022/03/24 03:54:46;;;;;;;29.02;13.43;;;;;;;;;;4992686;28;20113;-75
2022/03/24 03:57:11;;;;;;;29.45;13.15;;;;;;;;;;4992535;28;20113;-78
2022/03/24 03:59:36;;;;;;;28.70;12.82;;;;;;;;;;4992229;28;20122;-79
2022/03/24 04:02:02;;;;;;;26.73;13.25;;;;;;;;;;4992566;28;20033;-77
2022/03/24 04:04:27;;;;;;;25.20;12.98;;;;;;;;;;4991920;28;20396;-77
2022/03/24 04:06:52;;;;;;;26.15;13.52;;;;;;;;;;4992099;28;20022;-77
2022/03/24 04:09:18;;;;;;;24.23;12.52;;;;;;;;;;4991107;28;20085;-79
2022/03/24 04:11:43;;;;;;;29.77;13.15;;;;;;;;;;4991948;28;20045;-79
2022/03/24 04:14:09;;;;;;;23.70;12.35;;;;;;;;;;4991097;28;20104;-80
2022/03/24 04:16:34;;;;;;;24.15;13.70;;;;;;;;;;4991033;28;20019;-77
2022/03/24 04:18:59;;;;;;;24.10;12.48;;;;;;;;;;4992157;28;20041;-76
2022/03/24 04:21:24;;;;;;;24.52;12.95;;;;;;;;;;4992057;28;20030;-76
2022/03/24 04:23:50;;;;;;;33.38;12.63;;;;;;;;;;5007771;28;20137;-77
2022/03/24 04:26:15;;;;;;;26.92;12.63;;;;;;;;;;4990424;28;20435;-78
2022/03/24 04:28:43;;;;;;;29.10;12.50;;;;;;;;;;4992288;28;20046;-78
2022/03/24 04:31:09;;;;;;;24.73;12.48;;;;;;;;;;5011506;28;20085;-81
2022/03/24 04:33:34;;;;;;;30.52;12.07;;;;;;;;;;4992028;28;20019;-76
2022/03/24 04:36:00;;;;;;;40.28;17.95;;;;;;;;;;4991625;28;20014;-78
2022/03/24 04:38:26;;;;;;;29.30;14.38;;;;;;;;;;4997144;28;20037;-77
2022/03/24 04:40:52;;;;;;;26.27;13.60;;;;;;;;;;4992648;28;20021;-80
2022/03/24 04:43:17;;;;;;;28.27;11.82;;;;;;;;;;4991870;28;20014;-80
2022/03/24 04:45:43;;;;;;;32.00;12.50;;;;;;;;;;4991832;28;20073;-80
2022/03/24 04:48:08;;;;;;;31.80;13.85;;;;;;;;;;4991935;28;20106;-77
2022/03/24 04:50:34;;;;;;;34.05;14.93;;;;;;;;;;4991574;28;20041;-81
2022/03/24 04:52:59;;;;;;;34.75;16.30;;;;;;;;;;4990396;28;20019;-81
2022/03/24 04:55:24;;;;;;;32.65;14.02;;;;;;;;;;5006709;28;20080;-78
2022/03/24 04:57:50;;;;;;;29.80;15.35;;;;;;;;;;4991861;28;20019;-80
2022/03/24 05:00:18;;;;;;;35.35;13.57;;;;;;;;;;4991655;28;20011;-80
2022/03/24 05:02:44;;;;;;;48.15;21.35;;;;;;;;;;4991868;28;20026;-81
2022/03/24 05:05:10;;;;;;;42.05;20.48;;;;;;;;;;4991275;28;20023;-80
2022/03/24 05:07:36;;;;;;;35.58;17.55;;;;;;;;;;4991299;28;20032;-78
2022/03/24 05:10:01;;;;;;;29.63;14.82;;;;;;;;;;4991601;28;20022;-80
2022/03/24 05:12:27;;;;;;;32.08;14.15;;;;;;;;;;4991611;28;20014;-80
2022/03/24 05:14:52;;;;;;;32.42;14.63;;;;;;;;;;4990197;28;20455;-79
2022/03/24 05:17:17;;;;;;;30.85;15.50;;;;;;;;;;4991900;28;20048;-81
2022/03/24 05:19:48;;;;;;;33.83;14.48;;;;;;;;;;4991641;28;20027;-77
2022/03/24 05:22:13;;;;;;;36.03;15.00;;;;;;;;;;4992007;28;20122;-82
2022/03/24 05:24:40;;;;;;;42.55;14.45;;;;;;;;;;4993730;28;20145;-77
2022/03/24 05:27:06;;;;;;;32.63;13.82;;;;;;;;;;4995639;28;20014;-79
2022/03/24 05:29:31;;;;;;;27.05;13.90;;;;;;;;;;4991034;28;20040;-79
2022/03/24 05:31:56;;;;;;;34.58;15.10;;;;;;;;;;5006244;28;20037;-78
2022/03/24 05:34:22;;;;;;;37.42;15.32;;;;;;;;;;4995236;28;20033;-84
2022/03/24 05:36:48;;;;;;;38.78;15.15;;;;;;;;;;4995694;28;20022;-83
2022/03/24 05:39:13;;;;;;;35.40;15.63;;;;;;;;;;4992255;28;20014;-84
2022/03/24 05:41:39;;;;;;;34.78;15.30;;;;;;;;;;4992476;28;20022;-81
2022/03/24 05:44:04;;;;;;;36.92;14.68;;;;;;;;;;4991743;28;20017;-82
2022/03/24 05:46:29;;;;;;;42.03;15.18;;;;;;;;;;4992777;28;20026;-80
2022/03/24 05:48:55;;;;;;;38.45;14.57;;;;;;;;;;4992729;28;20026;-84
2022/03/24 05:51:21;;;;;;;44.45;15.65;;;;;;;;;;4997171;28;20145;-84
2022/03/24 05:53:46;;;;;;;39.78;16.48;;;;;;;;;;5023595;28;20430;-87
2022/03/24 05:56:11;;;;;;;47.78;15.48;;;;;;;;;;5012063;28;20017;-84
2022/03/24 05:58:36;;;;;;;60.92;15.88;;;;;;;;;;5006947;28;20049;-81
2022/03/24 06:01:02;;;;;;;29.95;14.00;;;;;;;;;;4992938;28;20629;-72
2022/03/24 06:03:29;;;;;;;29.08;12.85;;;;;;;;;;4998685;28;20045;-74
2022/03/24 06:05:57;;;;;;;36.10;14.55;;;;;;;;;;5016309;28;20026;-74
2022/03/24 06:08:22;;;;;;;32.45;14.40;;;;;;;;;;5023014;28;20056;-75
2022/03/24 06:10:48;;;;;;;36.13;15.20;;;;;;;;;;5018482;28;20057;-74
2022/03/24 06:13:14;;;;;;;29.10;13.35;;;;;;;;;;5022619;28;20040;-78
2022/03/24 06:15:39;;;;;;;26.65;13.27;;;;;;;;;;5028396;28;20105;-75
2022/03/24 06:18:04;;;;;;;29.08;13.38;;;;;;;;;;5013214;28;20022;-76
2022/03/24 06:20:30;;;;;;;27.33;14.05;;;;;;;;;;5014538;28;20022;-77
2022/03/24 06:22:55;;;;;;;22.83;12.30;;;;;;;;;;5025977;28;20018;-74
2022/03/24 06:25:21;;;;;;;28.08;13.60;;;;;;;;;;5025321;28;20018;-76
2022/03/24 06:27:52;;;;;;;26.20;12.45;;;;;;;;;;5013555;28;20025;-77
2022/03/24 06:30:18;;;;;;;25.98;13.25;;;;;;;;;;5021160;28;20108;-75
2022/03/24 06:32:43;;;;;;;28.85;13.88;;;;;;;;;;5019881;28;20419;-76
2022/03/24 06:35:08;;;;;;;28.45;13.35;;;;;;;;;;5013476;28;20022;-75
2022/03/24 06:37:40;;;;;;;25.90;13.20;;;;;;;;;;5013437;28;20030;-75
2022/03/24 06:40:09;;;;;;;28.60;13.35;;;;;;;;;;5013114;28;20493;-74
2022/03/24 06:42:34;;;;;;;26.10;13.57;;;;;;;;;;5012099;28;20029;-76
2022/03/24 06:44:59;;;;;;;30.40;13.38;;;;;;;;;;5013010;28;20101;-75
2022/03/24 06:47:24;;;;;;;26.17;13.45;;;;;;;;;;5013157;28;20411;-75
2022/03/24 06:49:50;;;;;;;25.70;12.80;;;;;;;;;;5011890;28;20028;-75
2022/03/24 06:52:15;;;;;;;28.08;12.98;;;;;;;;;;5012771;28;20033;-74
2022/03/24 06:54:40;;;;;;;26.85;13.88;;;;;;;;;;5013389;28;20029;-74
2022/03/24 06:57:06;;;;;;;30.80;14.07;;;;;;;;;;5011733;28;20061;-74
2022/03/24 06:59:31;;;;;;;27.48;13.90;;;;;;;;;;5013302;28;20025;-76
2022/03/24 07:01:56;;;;;;;30.27;15.25;;;;;;;;;;5015803;28;20045;-77
2022/03/24 07:04:21;;;;;;;26.05;13.85;;;;;;;;;;5017004;28;20116;-75
2022/03/24 07:06:47;;;;;;;23.85;13.38;;;;;;;;;;5013180;28;20387;-75
2022/03/24 07:09:12;;;;;;;27.65;14.10;;;;;;;;;;5011457;28;20113;-75
2022/03/24 07:11:37;;;;;;;32.38;14.98;;;;;;;;;;5013146;28;20030;-74
2022/03/24 07:14:02;;;;;;;27.73;14.77;;;;;;;;;;5013717;28;20054;-78
2022/03/24 07:16:28;;;;;;;29.20;14.48;;;;;;;;;;5015486;28;20036;-75
2022/03/24 07:18:53;;;;;;;31.45;15.10;;;;;;;;;;5013588;28;20037;-74
2022/03/24 07:21:19;;;;;;;31.23;15.73;;;;;;;;;;5013095;28;20143;-75
2022/03/24 07:23:44;;;;;;;30.48;15.68;;;;;;;;;;5014297;28;20016;-76
2022/03/24 07:26:10;;;;;;;30.58;14.48;;;;;;;;;;5016062;28;20030;-86
2022/03/24 07:28:35;;;;;;;30.17;14.70;;;;;;;;;;5020756;28;20463;-81
2022/03/24 07:31:14;;;;;;;35.53;15.38;;;;;;;;;;4999241;28;20173;-83
2022/03/24 07:33:40;;;;;;;27.08;15.10;;;;;;;;;;4999812;28;20022;-85
2022/03/24 07:36:06;;;;;;;28.85;14.43;;;;;;;;;;4997631;28;20030;-84
2022/03/24 07:38:32;;;;;;;35.08;16.55;;;;;;;;;;5002202;28;20046;-81
2022/03/24 07:40:57;;;;;;;29.55;15.20;;;;;;;;;;5002392;28;20056;-84
2022/03/24 07:43:22;;;;;;;27.02;14.63;;;;;;;;;;5004157;28;20026;-83
2022/03/24 07:45:48;;;;;;;27.47;15.17;;;;;;;;;;5005784;28;20057;-85
2022/03/24 07:48:16;;;;;;;27.30;14.38;;;;;;;;;;5020597;28;20260;-83
2022/03/24 07:50:42;;;;;;;36.33;15.57;;;;;;;;;;5006506;28;20026;-87
2022/03/24 07:53:14;;;;;;;25.98;15.73;;;;;;;;;;5003389;28;20034;-87
2022/03/24 07:55:43;;;;;;;31.02;14.90;;;;;;;;;;5002655;28;20408;-85
2022/03/24 07:58:09;;;;;;;31.20;15.75;;;;;;;;;;5002587;28;20022;-83
2022/03/24 08:00:34;;;;;;;25.85;15.23;;;;;;;;;;5004842;28;20110;-82
2022/03/24 08:03:00;;;;;;;28.63;16.35;;;;;;;;;;5003550;28;20018;-82
2022/03/24 08:05:26;;;;;;;23.57;15.83;;;;;;;;;;5006889;28;20057;-86
2022/03/24 08:07:53;;;;;;;23.65;15.88;;;;;;;;;;5005938;28;20037;-81
2022/03/24 08:10:19;;;;;;;26.35;15.48;;;;;;;;;;5010509;28;20045;-89
2022/03/24 08:12:44;;;;;;;24.80;16.02;;;;;;;;;;5008307;28;20018;-87
2022/03/24 08:15:10;;;;;;;26.13;15.43;;;;;;;;;;5007354;28;20030;-84
2022/03/24 08:17:35;;;;;;;28.87;14.77;;;;;;;;;;5008945;28;20383;-86
2022/03/24 08:20:00;;;;;;;34.30;15.60;;;;;;;;;;5011090;28;20291;-83
2022/03/24 08:22:25;;;;;;;26.70;16.15;;;;;;;;;;5009775;28;20275;-87
2022/03/24 08:24:50;;;;;;;29.87;17.47;;;;;;;;;;5033957;28;20006;-83
2022/03/24 08:27:16;;;;;;;26.97;16.23;;;;;;;;;;5032419;28;20327;-83
2022/03/24 08:29:44;;;;;;;26.03;16.03;;;;;;;;;;5041406;28;20009;-85
2022/03/24 08:32:12;;;;;;;25.65;15.30;;;;;;;;;;5040413;28;20314;-83
2022/03/24 08:34:37;;;;;;;27.30;18.13;;;;;;;;;;5034578;28;20037;-86
2022/03/24 08:37:03;;;;;;;33.75;18.40;;;;;;;;;;5037363;28;20030;-87
2022/03/24 08:39:28;;;;;;;31.88;17.00;;;;;;;;;;5032984;28;20017;-85
2022/03/24 08:41:54;;;;;;;29.75;16.52;;;;;;;;;;5029728;28;20119;-84
2022/03/24 08:44:19;;;;;;;29.40;17.75;;;;;;;;;;5031214;28;20047;-83
2022/03/24 08:46:44;;;;;;;33.40;18.05;;;;;;;;;;5034974;28;20049;-83
2022/03/24 08:49:11;;;;;;;29.43;18.63;;;;;;;;;;5033164;28;20029;-88
2022/03/24 08:51:37;;;;;;;34.13;18.80;;;;;;;;;;5031101;28;20283;-81
2022/03/24 08:54:03;;;;;;;39.65;19.20;;;;;;;;;;5043891;28;20041;-87
2022/03/24 08:56:28;;;;;;;40.78;20.33;;;;;;;;;;5052396;28;20021;-84
2022/03/24 08:58:53;;;;;;;35.03;19.27;;;;;;;;;;5050124;28;20018;-82
2022/03/24 09:01:19;;;;;;;33.42;18.67;;;;;;;;;;5042397;28;20025;-81
2022/03/24 09:03:47;;;;;;;32.95;19.48;;;;;;;;;;5033251;28;20040;-79
2022/03/24 09:06:13;;;;;;;35.00;18.92;;;;;;;;;;5042123;28;20029;-80
2022/03/24 09:08:39;;;;;;;31.98;19.08;;;;;;;;;;5033502;28;20010;-85
2022/03/24 09:11:04;;;;;;;29.38;20.50;;;;;;;;;;5041169;28;20044;-86
2022/03/24 09:13:32;;;;;;;36.63;21.20;;;;;;;;;;5033165;28;20036;-85
2022/03/24 09:15:57;;;;;;;35.10;18.80;;;;;;;;;;5038992;28;20036;-87
2022/03/24 09:18:23;;;;;;;38.83;19.17;;;;;;;;;;5034632;28;20038;-87
2022/03/24 09:20:48;;;;;;;28.60;20.07;;;;;;;;;;5038883;28;20323;-86
2022/03/24 09:23:14;;;;;;;34.42;19.45;;;;;;;;;;5034155;28;20309;-85
2022/03/24 09:25:39;;;;;;;33.53;18.80;;;;;;;;;;5029060;28;20002;-85
2022/03/24 09:28:06;;;;;;;32.25;18.08;;;;;;;;;;5029155;28;20055;-86
2022/03/24 09:30:31;;;;;;;33.88;18.35;;;;;;;;;;5041905;28;20057;-85
2022/03/24 09:32:56;;;;;;;33.27;17.87;;;;;;;;;;5034000;28;20026;-85
2022/03/24 09:35:21;;;;;;;28.33;17.30;;;;;;;;;;5034955;28;20014;-85
2022/03/24 09:37:47;;;;;;;28.20;17.37;;;;;;;;;;5051472;28;20001;-87
2022/03/24 09:40:13;;;;;;;25.25;15.77;;;;;;;;;;5049557;28;20290;-89
2022/03/24 09:42:39;;;;;;;30.90;16.30;;;;;;;;;;5044405;28;20081;-84
2022/03/24 09:45:05;;;;;;;41.13;23.05;;;;;;;;;;5046853;28;20006;-84
2022/03/24 09:47:31;;;;;;;23.77;14.43;;;;;;;;;;5034647;28;20014;-86
2022/03/24 09:49:57;;;;;;;20.60;14.73;;;;;;;;;;5041554;28;20052;-85
2022/03/24 09:52:22;;;;;;;20.98;14.05;;;;;;;;;;5024700;28;20041;-83
2022/03/24 09:54:48;;;;;;;28.73;14.25;;;;;;;;;;5045714;28;20077;-86
2022/03/24 09:57:13;;;;;;;19.83;13.25;;;;;;;;;;5051041;28;20056;-84
2022/03/24 09:59:38;;;;;;;23.02;14.15;;;;;;;;;;5047035;28;20084;-85
2022/03/24 10:02:04;;;;;;;37.47;26.70;;;;;;;;;;5057617;28;20032;-87
2022/03/24 10:04:46;;;;;;;25.55;14.40;;;;;;;;;;5046249;28;20263;-86
2022/03/24 10:07:12;;;;;;;23.83;15.35;;;;;;;;;;5044164;28;20064;-86
2022/03/24 10:09:38;;;;;;;25.10;14.93;;;;;;;;;;5050355;28;20022;-82
2022/03/24 10:12:04;;;;;;;24.05;15.23;;;;;;;;;;5053972;28;20112;-83
2022/03/24 10:14:29;;;;;;;25.40;14.00;;;;;;;;;;5052621;28;20057;-84
2022/03/24 10:17:04;;;;;;;27.17;16.00;;;;;;;;;;5054775;28;20048;-85
2022/03/24 10:19:30;;;;;;;28.00;15.32;;;;;;;;;;5055729;28;20612;-85
2022/03/24 10:21:56;;;;;;;25.52;15.27;;;;;;;;;;5040570;28;20018;-73
2022/03/24 10:24:22;;;;;;;25.20;14.65;;;;;;;;;;5012044;28;20045;-73
2022/03/24 10:26:47;;;;;;;25.75;14.40;;;;;;;;;;5016549;28;20025;-74
2022/03/24 10:29:20;;;;;;;25.40;13.37;;;;;;;;;;5010108;28;20021;-73
2022/03/24 10:31:50;;;;;;;29.17;14.07;;;;;;;;;;5002048;28;20287;-73
2022/03/24 10:34:26;;;;;;;27.60;14.30;;;;;;;;;;5012400;28;20394;-74
2022/03/24 10:36:51;;;;;;;22.58;12.98;;;;;;;;;;5013583;28;20045;-74
2022/03/24 10:39:23;;;;;;;25.17;13.75;;;;;;;;;;5013010;28;20038;-73
2022/03/24 10:41:48;;;;;;;23.95;13.02;;;;;;;;;;5012048;28;20908;-73
2022/03/24 10:44:13;;;;;;;26.87;14.63;;;;;;;;;;5012367;28;20053;-72
2022/03/24 10:46:41;;;;;;;24.95;14.20;;;;;;;;;;5010213;28;20550;-72
2022/03/24 10:49:20;;;;;;;26.15;14.38;;;;;;;;;;5012787;28;20033;-71
2022/03/24 10:51:47;;;;;;;31.27;14.75;;;;;;;;;;5004739;28;20125;-71
2022/03/24 10:54:18;;;;;;;24.48;13.75;;;;;;;;;;5016630;28;20058;-72
2022/03/24 10:56:46;;;;;;;28.13;13.05;;;;;;;;;;5013432;28;20034;-72
2022/03/24 10:59:11;;;;;;;23.02;13.23;;;;;;;;;;5013468;28;20021;-71
2022/03/24 11:01:37;;;;;;;21.47;12.60;;;;;;;;;;5013330;28;20045;-72
2022/03/24 11:04:03;;;;;;;21.30;12.18;;;;;;;;;;5013746;28;20036;-71
2022/03/24 11:06:29;;;;;;;35.95;13.13;;;;;;;;;;5012071;28;20387;-71
2022/03/24 11:08:56;;;;;;;18.73;12.73;;;;;;;;;;5013019;28;20089;-72
2022/03/24 11:11:22;;;;;;;30.25;12.80;;;;;;;;;;5012522;28;20030;-71
2022/03/24 11:13:58;;;;;;;24.98;12.55;;;;;;;;;;5013286;28;20136;-72
2022/03/24 11:16:24;;;;;;;25.65;11.73;;;;;;;;;;5012973;28;20033;-71
2022/03/24 11:18:51;;;;;;;23.17;11.88;;;;;;;;;;5014184;28;20021;-71
2022/03/24 11:21:22;;;;;;;18.15;11.68;;;;;;;;;;5014558;28;20022;-71
2022/03/24 11:23:49;;;;;;;26.08;11.20;;;;;;;;;;5015166;28;20368;-71
2022/03/24 11:26:15;;;;;;;20.35;10.20;;;;;;;;;;5013130;28;20017;-72
2022/03/24 11:28:41;;;;;;;21.98;11.27;;;;;;;;;;5012422;28;20045;-71
2022/03/24 11:31:10;;;;;;;23.30;9.68;;;;;;;;;;5012616;28;20030;-72
2022/03/24 11:33:40;;;;;;;21.33;11.40;;;;;;;;;;5012790;28;20017;-71
2022/03/24 11:36:06;;;;;;;21.40;9.93;;;;;;;;;;5011932;28;20018;-70
2022/03/24 11:38:32;;;;;;;20.23;9.93;;;;;;;;;;5012460;28;20037;-73
2022/03/24 11:41:02;;;;;;;21.15;9.75;;;;;;;;;;5012344;28;20022;-73
2022/03/24 11:43:27;;;;;;;16.52;9.15;;;;;;;;;;5012369;28;20022;-74
2022/03/24 11:45:58;;;;;;;20.88;9.48;;;;;;;;;;5013753;28;20025;-72
2022/03/24 11:48:31;;;;;;;16.05;8.50;;;;;;;;;;5014486;28;20030;-73
2022/03/24 11:50:56;;;;;;;17.48;8.73;;;;;;;;;;5015937;28;20068;-72
2022/03/24 11:53:27;;;;;;;16.67;7.93;;;;;;;;;;5014559;28;20014;-72
2022/03/24 11:55:58;;;;;;;19.67;6.90;;;;;;;;;;5011187;28;20509;-72
2022/03/24 11:58:24;;;;;;;15.45;7.70;;;;;;;;;;5011845;28;20022;-72
2022/03/24 12:00:50;;;;;;;16.17;7.70;;;;;;;;;;5011372;28;20383;-72
2022/03/24 12:03:34;;;;;;;19.75;7.28;;;;;;;;;;5020814;28;20033;-81
2022/03/24 12:05:59;;;;;;;22.60;7.40;;;;;;;;;;5025242;28;20030;-82
2022/03/24 12:08:25;;;;;;;11.98;5.95;;;;;;;;;;5029241;28;20032;-80
2022/03/24 12:10:51;;;;;;;15.43;6.30;;;;;;;;;;5026110;28;20030;-84
2022/03/24 12:13:16;;;;;;;15.40;6.23;;;;;;;;;;5025723;28;20046;-81
2022/03/24 12:15:41;;;;;;;16.67;6.35;;;;;;;;;;5023519;28;20326;-86
2022/03/24 12:18:07;;;;;;;13.80;5.78;;;;;;;;;;5022081;28;20036;-82
2022/03/24 12:20:43;;;;;;;13.00;5.22;;;;;;;;;;5022836;28;20097;-79
2022/03/24 12:23:08;;;;;;;7.93;4.15;;;;;;;;;;5023079;28;20109;-82
2022/03/24 12:25:35;;;;;;;12.90;4.15;;;;;;;;;;5021710;28;20141;-81
2022/03/24 12:28:02;;;;;;;15.32;4.45;;;;;;;;;;5019259;28;20359;-79
2022/03/24 12:30:41;;;;;;;9.40;4.07;;;;;;;;;;5029892;28;20037;-80
2022/03/24 12:33:08;;;;;;;10.82;4.60;;;;;;;;;;5022321;28;20037;-78
2022/03/24 12:35:44;;;;;;;8.35;4.22;;;;;;;;;;5035120;28;20063;-82
2022/03/24 12:38:21;;;;;;;13.52;4.80;;;;;;;;;;5023053;28;20040;-82
2022/03/24 12:41:09;;;;;;;11.98;4.50;;;;;;;;;;5023676;28;20022;-79
2022/03/24 12:44:00;;;;;;;9.63;3.88;;;;;;;;;;5022233;28;20120;-83
2022/03/24 12:46:32;;;;;;;9.82;4.68;;;;;;;;;;5030678;28;20057;-79
2022/03/24 12:49:00;;;;;;;9.70;3.92;;;;;;;;;;5015670;28;20490;-83
2022/03/24 12:51:27;;;;;;;8.80;3.90;;;;;;;;;;5024542;28;20038;-78
2022/03/24 12:53:54;;;;;;;8.73;4.07;;;;;;;;;;5026711;28;20020;-83
2022/03/24 12:56:22;;;;;;;10.27;5.13;;;;;;;;;;5021838;28;20026;-83
2022/03/24 12:58:51;;;;;;;11.05;3.88;;;;;;;;;;5029548;28;20136;-83
2022/03/24 13:01:17;;;;;;;10.68;3.65;;;;;;;;;;5032430;28;20463;-80
2022/03/24 13:03:44;;;;;;;10.80;3.40;;;;;;;;;;5026567;28;20029;-85
2022/03/24 13:06:09;;;;;;;9.38;3.88;;;;;;;;;;5019235;28;20036;-85
2022/03/24 13:08:35;;;;;;;11.55;4.65;;;;;;;;;;5022285;28;20037;-85
2022/03/24 13:11:03;;;;;;;8.27;3.80;;;;;;;;;;5025229;28;20034;-81
2022/03/24 13:13:28;;;;;;;10.20;5.20;;;;;;;;;;5023780;28;20049;-84
2022/03/24 13:15:53;;;;;;;15.35;5.38;;;;;;;;;;5005341;28;20025;-81
2022/03/24 13:18:23;;;;;;;6.63;3.80;;;;;;;;;;5025898;28;20021;-79
2022/03/24 13:20:51;;;;;;;7.50;4.63;;;;;;;;;;5035593;28;20263;-84
2022/03/24 13:23:18;;;;;;;6.10;3.90;;;;;;;;;;5044095;28;20017;-82
2022/03/24 13:25:49;;;;;;;7.20;4.05;;;;;;;;;;5028147;28;20076;-84
2022/03/24 13:28:15;;;;;;;8.13;3.20;;;;;;;;;;5021599;28;20018;-81
2022/03/24 13:30:41;;;;;;;12.02;7.05;;;;;;;;;;5032114;28;20425;-84
2022/03/24 13:33:07;;;;;;;9.35;3.78;;;;;;;;;;5024027;28;20072;-79
2022/03/24 13:35:37;;;;;;;14.55;3.60;;;;;;;;;;5023312;28;20025;-80
2022/03/24 13:38:13;;;;;;;11.13;3.80;;;;;;;;;;5042679;28;20017;-86
2022/03/24 13:40:40;;;;;;;8.68;3.40;;;;;;;;;;5036459;28;20089;-82
2022/03/24 13:43:05;;;;;;;12.32;4.47;;;;;;;;;;5019730;28;20033;-85
2022/03/24 13:45:31;;;;;;;7.00;3.45;;;;;;;;;;5027655;28;20176;-83
2022/03/24 13:48:00;;;;;;;9.98;3.40;;;;;;;;;;5037875;28;20014;-83
2022/03/24 13:50:27;;;;;;;9.48;4.18;;;;;;;;;;5041747;28;20012;-84
2022/03/24 13:52:53;;;;;;;8.10;3.80;;;;;;;;;;5035375;28;20014;-86
2022/03/24 13:55:26;;;;;;;6.60;3.28;;;;;;;;;;5028986;28;20029;-83
2022/03/24 13:57:55;;;;;;;11.30;3.78;;;;;;;;;;5036970;28;20031;-81
2022/03/24 14:00:23;;;;;;;6.20;3.17;;;;;;;;;;5035601;28;20536;-82
2022/03/24 14:02:54;;;;;;;8.18;3.60;;;;;;;;;;5019917;28;20076;-81
2022/03/24 14:05:19;;;;;;;9.82;3.47;;;;;;;;;;5028919;28;20033;-82
2022/03/24 14:07:57;;;;;;;6.37;3.03;;;;;;;;;;5030115;28;20026;-84
2022/03/24 14:10:40;;;;;;;5.63;3.13;;;;;;;;;;5022912;28;20274;-79
2022/03/24 14:13:11;;;;;;;7.28;3.85;;;;;;;;;;5028647;28;20045;-80
2022/03/24 14:15:36;;;;;;;12.98;4.88;;;;;;;;;;5028088;28;20089;-87
2022/03/24 14:18:14;;;;;;;6.77;3.40;;;;;;;;;;5031950;28;20077;-84